createdAt,value
2023-04-07T00:01:36.848Z,0.42
2023-04-07T00:04:03.514Z,0.27
2023-04-07T00:06:30.287Z,0.24
2023-04-07T00:08:56.736Z,0.44
2023-04-07T00:11:23.105Z,0.60
2023-04-07T00:13:49.425Z,0.55
2023-04-07T00:16:15.987Z,0.30
2023-04-07T00:18:42.331Z,0.31
2023-04-07T00:21:08.736Z,0.39
2023-04-07T00:23:35.040Z,0.49
2023-04-07T00:26:01.445Z,0.52
2023-04-07T00:28:27.775Z,0.42
2023-04-07T00:30:54.118Z,0.36
2023-04-07T00:33:20.448Z,0.40
2023-04-07T00:35:46.803Z,0.37
2023-04-07T00:38:13.263Z,0.37
2023-04-07T00:40:39.693Z,0.44
2023-04-07T00:43:06.098Z,0.37
2023-04-07T00:45:32.578Z,0.32
2023-04-07T00:47:59.178Z,0.30
2023-04-07T00:50:25.883Z,0.11
2023-04-07T00:52:53.807Z,-0.03
2023-04-07T00:55:20.399Z,-0.08
2023-04-07T00:57:46.836Z,0.09
2023-04-07T01:00:13.467Z,0.18
2023-04-07T01:02:58.385Z,0.11
2023-04-07T01:05:33.337Z,0.01
2023-04-07T01:07:59.838Z,0.08
2023-04-07T01:10:44.151Z,-0.04
2023-04-07T01:13:22.282Z,-0.01
2023-04-07T01:15:50.244Z,0.11
2023-04-07T01:18:20.314Z,-0.05
2023-04-07T01:20:49.253Z,-0.23
2023-04-07T01:23:22.346Z,-0.24
2023-04-07T01:26:22.370Z,-0.21
2023-04-07T01:28:48.721Z,-0.34
2023-04-07T01:31:16.300Z,-0.18
2023-04-07T01:33:44.480Z,-0.14
2023-04-07T01:36:11.616Z,-0.39
2023-04-07T01:38:38.828Z,-0.30
2023-04-07T01:41:06.189Z,-0.22
2023-04-07T01:43:33.243Z,-0.11
2023-04-07T01:46:01.340Z,-0.30
2023-04-07T01:48:27.731Z,-0.28
2023-04-07T01:50:55.184Z,-0.24
2023-04-07T01:53:23.119Z,-0.29
2023-04-07T01:55:49.815Z,-0.63
2023-04-07T01:58:16.241Z,-0.39
2023-04-07T02:00:43.715Z,-0.15
2023-04-07T02:03:23.306Z,-0.42
2023-04-07T02:05:52.236Z,-0.28
2023-04-07T02:08:19.940Z,-0.21
2023-04-07T02:10:47.612Z,-0.23
2023-04-07T02:13:16.052Z,-0.18
2023-04-07T02:15:45.312Z,-0.37
2023-04-07T02:18:13.110Z,-0.40
2023-04-07T02:20:39.986Z,-0.53
2023-04-07T02:23:07.848Z,-0.57
2023-04-07T02:25:34.299Z,-0.59
2023-04-07T02:28:01.413Z,-0.40
2023-04-07T02:30:29.242Z,-0.31
2023-04-07T02:32:55.669Z,-0.32
2023-04-07T02:35:22.264Z,-0.39
2023-04-07T02:37:49.126Z,-0.62
2023-04-07T02:40:15.823Z,-0.57
2023-04-07T02:42:42.498Z,-0.67
2023-04-07T02:45:09.731Z,-0.72
2023-04-07T02:47:36.819Z,-0.71
2023-04-07T02:50:03.439Z,-0.83
2023-04-07T02:52:29.792Z,-0.73
2023-04-07T02:54:56.250Z,-0.78
2023-04-07T02:57:22.620Z,-0.81
2023-04-07T02:59:48.964Z,-0.72
2023-04-07T03:02:15.541Z,-0.84
2023-04-07T03:04:41.999Z,-0.77
2023-04-07T03:07:08.324Z,-0.81
2023-04-07T03:09:34.941Z,-0.62
2023-04-07T03:12:02.200Z,-0.58
2023-04-07T03:14:28.547Z,-0.57
2023-04-07T03:16:54.917Z,-0.56
2023-04-07T03:19:21.345Z,-0.55
2023-04-07T03:21:47.711Z,-0.60
2023-04-07T03:24:14.027Z,-0.67
2023-04-07T03:26:40.628Z,-0.76
2023-04-07T03:29:07.101Z,-0.77
2023-04-07T03:31:33.446Z,-0.76
2023-04-07T03:33:59.786Z,-0.81
2023-04-07T03:36:28.054Z,-0.86
2023-04-07T03:38:54.504Z,-0.97
2023-04-07T03:41:21.222Z,-0.82
2023-04-07T03:43:47.589Z,-0.80
2023-04-07T03:46:14.067Z,-0.75
2023-04-07T03:48:40.849Z,-0.91
2023-04-07T03:51:08.221Z,-0.84
2023-04-07T03:53:34.692Z,-0.86
2023-04-07T03:56:01.380Z,-1.09
2023-04-07T03:58:27.741Z,-1.00
2023-04-07T04:00:54.210Z,-0.99
2023-04-07T04:03:20.891Z,-1.00
2023-04-07T04:05:47.357Z,-1.20
2023-04-07T04:08:13.727Z,-1.21
2023-04-07T04:10:45.493Z,-1.17
2023-04-07T04:13:11.843Z,-1.17
2023-04-07T04:15:38.302Z,-1.30
2023-04-07T04:18:04.687Z,-1.22
2023-04-07T04:20:31.079Z,-1.30
2023-04-07T04:22:58.444Z,-1.23
2023-04-07T04:25:24.800Z,-1.36
2023-04-07T04:27:51.518Z,-1.28
2023-04-07T04:30:17.861Z,-1.34
2023-04-07T04:32:44.680Z,-1.37
2023-04-07T04:35:11.242Z,-1.33
2023-04-07T04:37:37.616Z,-1.41
2023-04-07T04:40:04.210Z,-1.51
2023-04-07T04:42:31.561Z,-1.60
2023-04-07T04:44:58.102Z,-1.47
2023-04-07T04:47:24.597Z,-1.40
2023-04-07T04:49:51.121Z,-1.56
2023-04-07T04:52:17.537Z,-1.49
2023-04-07T04:54:43.885Z,-1.30
2023-04-07T04:57:17.394Z,-1.37
2023-04-07T04:59:43.725Z,-1.34
2023-04-07T05:02:10.193Z,-1.27
2023-04-07T05:04:37.772Z,-1.32
2023-04-07T05:07:05.175Z,-1.27
2023-04-07T05:09:31.661Z,-1.11
2023-04-07T05:11:58.383Z,-1.20
2023-04-07T05:14:24.724Z,-0.70
2023-04-07T05:16:51.459Z,-0.29
2023-04-07T05:19:17.805Z,0.31
2023-04-07T05:21:45.500Z,0.65
2023-04-07T05:24:12.060Z,0.92
2023-04-07T05:26:38.487Z,1.46
2023-04-07T05:29:04.885Z,1.75
2023-04-07T05:31:31.239Z,1.84
2023-04-07T05:33:58.113Z,2.07
2023-04-07T05:36:24.552Z,2.55
2023-04-07T05:38:51.588Z,3.02
2023-04-07T05:41:17.938Z,3.26
2023-04-07T05:43:44.377Z,3.05
2023-04-07T05:46:10.937Z,4.11
2023-04-07T05:48:37.426Z,4.90
2023-04-07T05:51:03.867Z,5.15
2023-04-07T05:53:30.469Z,5.60
2023-04-07T05:55:56.775Z,5.79
2023-04-07T05:58:23.179Z,5.71
2023-04-07T06:00:50.073Z,6.46
2023-04-07T06:03:16.733Z,6.77
2023-04-07T06:05:45.730Z,6.74
2023-04-07T06:08:12.113Z,6.83
2023-04-07T06:10:39.653Z,6.85
2023-04-07T06:13:06.070Z,7.04
2023-04-07T06:15:32.446Z,7.30
2023-04-07T06:17:59.403Z,6.88
2023-04-07T06:20:27.744Z,7.36
2023-04-07T06:22:54.953Z,7.60
2023-04-07T06:25:21.305Z,7.08
2023-04-07T06:27:47.694Z,8.09
2023-04-07T06:30:14.263Z,8.16
2023-04-07T06:32:41.442Z,8.13
2023-04-07T06:35:08.043Z,8.28
2023-04-07T06:37:34.454Z,8.40
2023-04-07T06:40:00.862Z,8.37
2023-04-07T06:42:27.198Z,8.52
2023-04-07T06:44:53.533Z,8.64
2023-04-07T06:47:20.031Z,8.88
2023-04-07T06:49:46.395Z,9.01
2023-04-07T06:52:12.868Z,9.11
2023-04-07T06:54:39.251Z,9.24
2023-04-07T06:57:11.703Z,9.40
2023-04-07T06:59:38.514Z,9.48
2023-04-07T07:02:05.016Z,9.85
2023-04-07T07:04:31.871Z,9.89
2023-04-07T07:06:58.263Z,9.66
2023-04-07T07:09:24.640Z,10.24
2023-04-07T07:11:52.046Z,9.81
2023-04-07T07:14:18.394Z,9.60
2023-04-07T07:16:44.754Z,10.03
2023-04-07T07:19:11.155Z,10.07
2023-04-07T07:21:37.587Z,10.56
2023-04-07T07:24:03.972Z,10.61
2023-04-07T07:26:30.361Z,10.84
2023-04-07T07:28:56.787Z,10.82
2023-04-07T07:31:23.922Z,10.86
2023-04-07T07:33:51.599Z,10.81
2023-04-07T07:36:17.953Z,10.79
2023-04-07T07:38:44.338Z,10.95
2023-04-07T07:41:10.834Z,10.93
2023-04-07T07:43:37.527Z,10.82
2023-04-07T07:46:04.111Z,10.77
2023-04-07T07:48:30.466Z,10.81
2023-04-07T07:50:57.074Z,11.10
2023-04-07T07:53:23.508Z,11.33
2023-04-07T07:55:49.832Z,11.45
2023-04-07T07:58:16.141Z,11.61
2023-04-07T08:00:42.689Z,11.88
2023-04-07T08:03:09.282Z,11.55
2023-04-07T08:05:35.954Z,11.59
2023-04-07T08:08:03.026Z,11.15
2023-04-07T08:10:29.433Z,11.19
2023-04-07T08:12:55.848Z,11.95
2023-04-07T08:15:22.307Z,12.29
2023-04-07T08:17:48.687Z,12.47
2023-04-07T08:20:15.109Z,12.77
2023-04-07T08:22:41.451Z,12.89
2023-04-07T08:25:08.669Z,12.20
2023-04-07T08:27:35.106Z,12.68
2023-04-07T08:30:03.194Z,13.17
2023-04-07T08:32:40.683Z,13.45
2023-04-07T08:35:07.845Z,13.74
2023-04-07T08:37:34.500Z,13.87
2023-04-07T08:40:01.691Z,13.46
2023-04-07T08:42:29.723Z,13.50
2023-04-07T08:44:57.585Z,13.29
2023-04-07T08:47:25.907Z,12.97
2023-04-07T08:49:53.106Z,13.19
2023-04-07T08:52:22.895Z,13.61
2023-04-07T08:54:49.685Z,13.32
2023-04-07T08:57:16.627Z,13.87
2023-04-07T08:59:45.327Z,14.03
2023-04-07T09:02:12.689Z,13.58
2023-04-07T09:04:39.113Z,13.45
2023-04-07T09:07:05.441Z,13.47
2023-04-07T09:09:31.895Z,13.27
2023-04-07T09:11:58.819Z,13.22
2023-04-07T09:14:25.286Z,13.55
2023-04-07T09:16:51.695Z,13.70
2023-04-07T09:19:18.125Z,13.11
2023-04-07T09:21:48.946Z,13.35
2023-04-07T09:24:41.454Z,13.04
2023-04-07T09:27:11.366Z,13.16
2023-04-07T09:29:37.810Z,13.07
2023-04-07T09:32:04.506Z,13.20
2023-04-07T09:34:35.089Z,13.67
2023-04-07T09:37:01.500Z,14.26
2023-04-07T09:39:28.184Z,13.95
2023-04-07T09:41:54.565Z,15.05
2023-04-07T09:44:24.379Z,15.35
2023-04-07T09:46:56.284Z,15.58
2023-04-07T09:49:24.136Z,15.74
2023-04-07T09:51:54.562Z,14.67
2023-04-07T09:54:36.471Z,15.21
2023-04-07T09:57:04.035Z,15.22
2023-04-07T09:59:31.294Z,15.32
2023-04-07T10:01:58.336Z,15.79
2023-04-07T10:04:25.014Z,15.43
2023-04-07T10:06:52.785Z,15.56
2023-04-07T10:09:19.216Z,15.41
2023-04-07T10:11:46.078Z,15.64
2023-04-07T10:14:13.082Z,16.00
2023-04-07T10:16:39.930Z,16.40
2023-04-07T10:19:07.155Z,16.21
2023-04-07T10:21:39.259Z,16.02
2023-04-07T10:24:09.322Z,15.81
2023-04-07T10:26:37.215Z,15.92
2023-04-07T10:29:06.605Z,15.81
2023-04-07T10:31:33.553Z,16.44
2023-04-07T10:34:01.344Z,15.99
2023-04-07T10:36:29.135Z,15.95
2023-04-07T10:39:07.534Z,15.88
2023-04-07T10:41:34.996Z,16.30
2023-04-07T10:44:02.321Z,16.52
2023-04-07T10:46:52.149Z,16.40
2023-04-07T10:49:19.062Z,16.17
2023-04-07T10:52:05.571Z,16.22
2023-04-07T10:54:31.957Z,15.98
2023-04-07T10:57:12.946Z,15.95
2023-04-07T10:59:40.735Z,15.42
2023-04-07T11:02:17.488Z,15.61
2023-04-07T11:04:45.460Z,15.84
2023-04-07T11:07:13.064Z,16.46
2023-04-07T11:09:40.414Z,16.79
2023-04-07T11:12:07.046Z,16.64
2023-04-07T11:14:33.713Z,16.33
2023-04-07T11:17:03.386Z,16.43
2023-04-07T11:19:30.344Z,16.04
2023-04-07T11:22:29.821Z,16.06
2023-04-07T11:24:56.472Z,16.07
2023-04-07T11:27:23.029Z,16.63
2023-04-07T11:29:50.274Z,16.53
2023-04-07T11:32:24.907Z,16.65
2023-04-07T11:34:52.412Z,16.40
2023-04-07T11:37:19.646Z,16.08
2023-04-07T11:39:51.569Z,16.05
2023-04-07T11:42:31.146Z,15.99
2023-04-07T11:44:57.492Z,15.62
2023-04-07T11:47:33.484Z,15.72
2023-04-07T11:50:01.053Z,15.59
2023-04-07T11:52:27.401Z,15.83
2023-04-07T11:54:53.759Z,15.90
2023-04-07T11:57:27.391Z,15.75
2023-04-07T12:00:09.947Z,15.44
2023-04-07T12:02:38.003Z,15.80
2023-04-07T12:05:05.045Z,15.89
2023-04-07T12:07:31.553Z,16.23
2023-04-07T12:09:57.889Z,15.97
2023-04-07T12:12:33.125Z,16.12
2023-04-07T12:14:59.488Z,16.61
2023-04-07T12:17:26.771Z,16.21
2023-04-07T12:19:53.613Z,16.21
2023-04-07T12:22:20.219Z,15.84
2023-04-07T12:24:46.513Z,15.89
2023-04-07T12:27:12.907Z,16.29
2023-04-07T12:29:39.296Z,16.61
2023-04-07T12:32:05.680Z,16.35
2023-04-07T12:34:32.074Z,16.14
2023-04-07T12:36:58.546Z,16.16
2023-04-07T12:39:24.856Z,16.47
2023-04-07T12:41:53.326Z,16.46
2023-04-07T12:44:19.763Z,16.08
2023-04-07T12:46:46.185Z,16.41
2023-04-07T12:49:12.505Z,16.25
2023-04-07T12:51:40.101Z,16.62
2023-04-07T12:54:06.632Z,16.32
2023-04-07T12:56:33.200Z,16.24
2023-04-07T12:58:59.504Z,16.06
2023-04-07T13:01:25.999Z,16.00
2023-04-07T13:03:52.653Z,15.75
2023-04-07T13:06:19.460Z,15.79
2023-04-07T13:08:45.854Z,16.30
2023-04-07T13:11:12.182Z,16.27
2023-04-07T13:13:38.539Z,16.11
2023-04-07T13:16:05.036Z,16.25
2023-04-07T13:18:31.370Z,16.53
2023-04-07T13:21:33.754Z,16.22
2023-04-07T13:23:44.220Z,16.13
2023-04-07T13:26:10.744Z,16.12
2023-04-07T13:28:37.387Z,16.44
2023-04-07T13:31:03.888Z,16.65
2023-04-07T13:33:30.392Z,16.68
2023-04-07T13:35:56.909Z,16.60
2023-04-07T13:38:23.312Z,16.20
2023-04-07T13:40:49.833Z,15.99
2023-04-07T13:43:18.524Z,16.08
2023-04-07T13:45:44.929Z,15.82
2023-04-07T13:48:11.407Z,16.16
2023-04-07T13:50:38.514Z,16.12
2023-04-07T13:53:04.873Z,15.86
2023-04-07T13:55:31.240Z,15.45
2023-04-07T13:57:57.583Z,15.77
2023-04-07T14:00:23.999Z,15.95
2023-04-07T14:02:50.422Z,15.57
2023-04-07T14:05:16.840Z,15.72
2023-04-07T14:07:43.163Z,15.76
2023-04-07T14:10:10.769Z,15.66
2023-04-07T14:12:37.212Z,15.59
2023-04-07T14:15:04.241Z,15.34
2023-04-07T14:17:30.882Z,15.64
2023-04-07T14:19:57.306Z,15.96
2023-04-07T14:22:23.687Z,15.71
2023-04-07T14:24:50.040Z,15.97
2023-04-07T14:27:20.879Z,15.82
2023-04-07T14:29:50.146Z,15.89
2023-04-07T14:32:16.984Z,15.77
2023-04-07T14:34:43.439Z,15.49
2023-04-07T14:37:09.848Z,15.61
2023-04-07T14:39:37.277Z,15.41
2023-04-07T14:42:04.605Z,15.65
2023-04-07T14:44:31.648Z,15.49
2023-04-07T14:46:58.053Z,15.48
2023-04-07T14:49:25.921Z,15.56
2023-04-07T14:51:52.305Z,15.56
2023-04-07T14:54:18.992Z,15.56
2023-04-07T14:56:45.494Z,15.44
2023-04-07T14:59:11.905Z,15.19
2023-04-07T15:01:39.904Z,15.01
2023-04-07T15:04:06.415Z,15.19
2023-04-07T15:06:32.788Z,15.29
2023-04-07T15:08:59.123Z,15.45
2023-04-07T15:11:26.205Z,15.45
2023-04-07T15:13:52.572Z,15.33
2023-04-07T15:16:19.111Z,15.48
2023-04-07T15:18:47.297Z,15.48
2023-04-07T15:21:14.764Z,15.67
2023-04-07T15:23:41.862Z,15.46
2023-04-07T15:26:08.574Z,15.47
2023-04-07T15:28:34.957Z,15.47
2023-04-07T15:31:01.522Z,15.27
2023-04-07T15:33:28.964Z,15.22
2023-04-07T15:35:55.939Z,15.17
2023-04-07T15:38:22.306Z,15.18
2023-04-07T15:40:48.685Z,15.09
2023-04-07T15:43:15.311Z,15.18
2023-04-07T15:45:43.153Z,14.89
2023-04-07T15:48:10.211Z,14.98
2023-04-07T15:50:36.653Z,15.15
2023-04-07T15:53:06.340Z,15.15
2023-04-07T15:55:33.400Z,15.02
2023-04-07T15:57:59.986Z,15.04
2023-04-07T16:00:30.420Z,14.80
2023-04-07T16:02:56.913Z,14.70
2023-04-07T16:05:23.437Z,14.50
2023-04-07T16:07:49.795Z,14.70
2023-04-07T16:10:19.706Z,14.54
2023-04-07T16:12:46.639Z,14.35
2023-04-07T16:15:13.145Z,14.27
2023-04-07T16:17:40.529Z,14.03
2023-04-07T16:20:13.608Z,14.30
2023-04-07T16:22:40.947Z,14.28
2023-04-07T16:25:07.743Z,14.29
2023-04-07T16:27:34.092Z,14.13
2023-04-07T16:30:00.464Z,14.05
2023-04-07T16:32:26.881Z,14.11
2023-04-07T16:34:53.224Z,14.00
2023-04-07T16:37:19.548Z,14.00
2023-04-07T16:39:46.129Z,13.99
2023-04-07T16:42:12.459Z,13.93
2023-04-07T16:44:38.784Z,13.88
2023-04-07T16:47:05.109Z,13.70
2023-04-07T16:49:31.500Z,13.65
2023-04-07T16:51:57.851Z,13.64
2023-04-07T16:54:24.167Z,13.54
2023-04-07T16:56:51.498Z,13.42
2023-04-07T16:59:17.967Z,13.36
2023-04-07T17:01:44.771Z,13.20
2023-04-07T17:04:12.295Z,13.15
2023-04-07T17:06:38.721Z,12.90
2023-04-07T17:09:05.164Z,12.74
2023-04-07T17:11:31.538Z,12.63
2023-04-07T17:13:57.922Z,12.47
2023-04-07T17:16:24.409Z,12.30
2023-04-07T17:18:51.700Z,12.17
2023-04-07T17:21:18.182Z,12.04
2023-04-07T17:23:44.504Z,11.92
2023-04-07T17:26:11.074Z,11.81
2023-04-07T17:28:37.406Z,11.69
2023-04-07T17:31:04.823Z,11.57
2023-04-07T17:33:31.267Z,11.34
2023-04-07T17:35:57.717Z,11.22
2023-04-07T17:38:24.072Z,11.08
2023-04-07T17:40:56.209Z,10.98
2023-04-07T17:43:22.715Z,10.86
2023-04-07T17:45:49.058Z,10.73
2023-04-07T17:48:15.704Z,10.67
2023-04-07T17:50:42.177Z,10.53
2023-04-07T17:53:08.560Z,10.41
2023-04-07T17:55:34.923Z,10.27
2023-04-07T17:58:02.002Z,10.12
2023-04-07T18:00:29.451Z,10.01
2023-04-07T18:02:56.110Z,10.08
2023-04-07T18:05:22.642Z,10.00
2023-04-07T18:07:49.311Z,10.16
2023-04-07T18:10:16.583Z,9.83
2023-04-07T18:12:43.025Z,9.82
2023-04-07T18:15:09.667Z,9.92
2023-04-07T18:17:36.223Z,9.88
2023-04-07T18:20:03.529Z,9.95
2023-04-07T18:22:30.372Z,9.79
2023-04-07T18:24:56.905Z,9.61
2023-04-07T18:27:25.218Z,9.53
2023-04-07T18:29:51.915Z,9.40
2023-04-07T18:32:18.248Z,9.19
2023-04-07T18:34:47.021Z,8.96
2023-04-07T18:37:13.431Z,9.16
2023-04-07T18:39:39.848Z,9.01
2023-04-07T18:42:06.430Z,9.01
2023-04-07T18:44:32.776Z,9.10
2023-04-07T18:46:59.375Z,9.01
2023-04-07T18:49:27.846Z,8.91
2023-04-07T18:51:55.254Z,8.82
2023-04-07T18:54:21.575Z,8.60
2023-04-07T18:56:48.322Z,8.87
2023-04-07T18:59:14.652Z,8.49
2023-04-07T19:01:42.498Z,8.59
2023-04-07T19:04:10.681Z,8.49
2023-04-07T19:06:37.381Z,8.38
2023-04-07T19:09:04.164Z,8.30
2023-04-07T19:11:30.745Z,8.11
2023-04-07T19:13:57.168Z,8.22
2023-04-07T19:16:26.530Z,8.18
2023-04-07T19:18:54.140Z,8.25
2023-04-07T19:21:20.720Z,8.27
2023-04-07T19:23:47.673Z,8.19
2023-04-07T19:26:14.393Z,7.85
2023-04-07T19:28:41.366Z,7.74
2023-04-07T19:31:10.985Z,7.72
2023-04-07T19:33:38.082Z,7.43
2023-04-07T19:36:04.715Z,7.45
2023-04-07T19:38:31.488Z,7.45
2023-04-07T19:40:58.024Z,7.43
2023-04-07T19:43:24.414Z,7.36
2023-04-07T19:45:51.844Z,7.29
2023-04-07T19:48:19.102Z,6.95
2023-04-07T19:50:49.779Z,7.20
2023-04-07T19:53:16.644Z,7.19
2023-04-07T19:55:43.446Z,7.19
2023-04-07T19:58:09.788Z,7.15
2023-04-07T20:00:36.729Z,7.04
2023-04-07T20:03:06.471Z,7.05
2023-04-07T20:05:34.003Z,7.02
2023-04-07T20:08:03.630Z,7.11
2023-04-07T20:10:29.958Z,6.90
2023-04-07T20:12:56.443Z,7.05
2023-04-07T20:15:24.609Z,7.02
2023-04-07T20:17:51.540Z,7.08
2023-04-07T20:20:19.147Z,6.95
2023-04-07T20:22:45.764Z,6.90
2023-04-07T20:25:14.254Z,6.80
2023-04-07T20:27:40.638Z,6.89
2023-04-07T20:30:09.235Z,6.70
2023-04-07T20:32:35.626Z,6.66
2023-04-07T20:35:03.247Z,6.63
2023-04-07T20:37:29.866Z,6.55
2023-04-07T20:39:56.259Z,6.63
2023-04-07T20:42:22.621Z,6.53
2023-04-07T20:44:49.010Z,6.51
2023-04-07T20:47:15.570Z,6.44
2023-04-07T20:49:43.581Z,6.42
2023-04-07T20:52:09.955Z,6.39
2023-04-07T20:54:36.374Z,6.39
2023-04-07T20:57:02.829Z,6.26
2023-04-07T20:59:30.136Z,6.35
2023-04-07T21:01:56.676Z,6.42
2023-04-07T21:04:24.474Z,6.36
2023-04-07T21:06:51.037Z,6.26
2023-04-07T21:09:17.816Z,6.27
2023-04-07T21:11:44.157Z,6.23
2023-04-07T21:14:10.531Z,6.11
2023-04-07T21:16:37.084Z,6.06
2023-04-07T21:19:03.653Z,6.06
2023-04-07T21:21:30.065Z,6.03
2023-04-07T21:23:56.536Z,5.92
2023-04-07T21:26:22.860Z,5.88
2023-04-07T21:28:50.845Z,5.93
2023-04-07T21:31:21.666Z,6.01
2023-04-07T21:33:48.282Z,5.84
2023-04-07T21:36:14.600Z,5.80
2023-04-07T21:38:41.807Z,5.92
2023-04-07T21:41:08.210Z,5.97
2023-04-07T21:43:37.577Z,5.91
2023-04-07T21:46:03.988Z,5.69
2023-04-07T21:48:30.364Z,5.55
2023-04-07T21:50:57.200Z,5.50
2023-04-07T21:53:23.527Z,5.52
2023-04-07T21:55:49.868Z,5.29
2023-04-07T21:58:16.211Z,5.34
2023-04-07T22:00:42.601Z,5.10
2023-04-07T22:03:09.991Z,5.40
2023-04-07T22:05:36.573Z,5.40
2023-04-07T22:08:03.233Z,5.44
2023-04-07T22:10:29.707Z,5.27
2023-04-07T22:12:56.050Z,5.02
2023-04-07T22:15:22.617Z,5.02
2023-04-07T22:17:49.050Z,4.83
2023-04-07T22:20:16.508Z,4.88
2023-04-07T22:22:43.944Z,5.15
2023-04-07T22:25:10.366Z,5.07
2023-04-07T22:27:36.687Z,4.89
2023-04-07T22:30:03.618Z,4.95
2023-04-07T22:32:30.083Z,4.79
2023-04-07T22:34:57.164Z,4.77
2023-04-07T22:37:23.543Z,4.75
2023-04-07T22:39:49.881Z,4.94
2023-04-07T22:42:16.260Z,4.93
2023-04-07T22:44:42.625Z,4.69
2023-04-07T22:47:09.165Z,4.95
2023-04-07T22:49:35.718Z,4.87
2023-04-07T22:52:02.523Z,4.57
2023-04-07T22:54:28.856Z,4.76
2023-04-07T22:56:55.942Z,4.79
2023-04-07T22:59:22.290Z,4.72
2023-04-07T23:01:48.901Z,4.49
2023-04-07T23:04:15.451Z,4.70
2023-04-07T23:06:43.515Z,4.60
2023-04-07T23:09:10.328Z,4.56
2023-04-07T23:11:36.710Z,4.61
2023-04-07T23:14:05.991Z,4.58
2023-04-07T23:16:33.248Z,4.48
2023-04-07T23:18:59.756Z,4.67
2023-04-07T23:21:26.332Z,4.57
2023-04-07T23:23:52.739Z,4.50
2023-04-07T23:26:19.100Z,4.50
2023-04-07T23:28:46.266Z,4.62
2023-04-07T23:31:12.586Z,4.66
2023-04-07T23:33:38.925Z,4.71
2023-04-07T23:36:05.568Z,4.56
2023-04-07T23:38:32.357Z,4.67
2023-04-07T23:40:58.696Z,4.47
2023-04-07T23:43:25.030Z,4.52
2023-04-07T23:45:51.379Z,4.61
2023-04-07T23:48:17.831Z,4.69
2023-04-07T23:50:44.172Z,4.76
2023-04-07T23:53:10.507Z,4.55
2023-04-07T23:55:36.933Z,4.64
2023-04-07T23:58:03.328Z,4.66
